createdAt,value
2023-05-06T00:02:12.551Z,4.50
2023-05-06T00:04:41.077Z,8.73
2023-05-06T00:07:08.688Z,6.32
2023-05-06T00:09:36.366Z,8.52
2023-05-06T00:12:05.447Z,8.43
2023-05-06T00:14:33.177Z,6.78
2023-05-06T00:17:00.667Z,7.72
2023-05-06T00:19:28.496Z,8.70
2023-05-06T00:21:55.998Z,7.68
2023-05-06T00:24:23.866Z,7.93
2023-05-06T00:26:51.341Z,8.18
2023-05-06T00:29:19.073Z,8.20
2023-05-06T00:31:46.501Z,12.95
2023-05-06T00:34:14.220Z,8.13
2023-05-06T00:36:42.875Z,18.95
2023-05-06T00:39:10.645Z,13.18
2023-05-06T00:41:37.996Z,14.48
2023-05-06T00:44:05.859Z,6.57
2023-05-06T00:46:33.743Z,9.85
2023-05-06T00:49:01.438Z,11.15
2023-05-06T00:51:28.960Z,8.32
2023-05-06T00:53:56.803Z,7.57
2023-05-06T00:56:24.309Z,7.70
2023-05-06T00:58:52.167Z,9.48
2023-05-06T01:01:19.581Z,8.13
2023-05-06T01:03:47.456Z,7.10
2023-05-06T01:06:18.790Z,9.52
2023-05-06T01:09:06.761Z,10.52
2023-05-06T01:11:38.575Z,10.75
2023-05-06T01:14:10.913Z,7.05
2023-05-06T01:16:40.574Z,7.93
2023-05-06T01:19:10.319Z,16.60
2023-05-06T01:21:38.225Z,7.88
2023-05-06T01:24:06.053Z,12.80
2023-05-06T01:26:33.411Z,9.82
2023-05-06T01:29:02.422Z,10.85
2023-05-06T01:31:43.664Z,9.65
2023-05-06T01:34:17.454Z,6.85
2023-05-06T01:36:59.170Z,10.75
2023-05-06T01:39:27.535Z,7.85
2023-05-06T01:41:57.336Z,10.25
2023-05-06T01:44:26.466Z,7.93
2023-05-06T01:46:54.649Z,6.85
2023-05-06T01:49:24.097Z,6.43
2023-05-06T01:51:52.413Z,8.90
2023-05-06T01:54:20.246Z,6.95
2023-05-06T01:56:47.708Z,6.13
2023-05-06T01:59:15.352Z,5.82
2023-05-06T02:01:42.752Z,15.13
2023-05-06T02:04:10.569Z,6.07
2023-05-06T02:06:37.942Z,11.13
2023-05-06T02:09:06.268Z,8.43
2023-05-06T02:11:33.647Z,7.53
2023-05-06T02:14:02.074Z,6.97
2023-05-06T02:16:29.754Z,6.78
2023-05-06T02:18:57.390Z,6.22
2023-05-06T02:21:24.807Z,7.82
2023-05-06T02:23:52.551Z,7.85
2023-05-06T02:26:19.895Z,8.10
2023-05-06T02:28:47.561Z,7.00
2023-05-06T02:31:18.020Z,7.40
2023-05-06T02:33:46.144Z,8.13
2023-05-06T02:36:13.489Z,10.85
2023-05-06T02:38:41.293Z,5.35
2023-05-06T02:41:08.643Z,4.15
2023-05-06T02:43:36.339Z,6.30
2023-05-06T02:46:03.732Z,8.38
2023-05-06T02:48:31.385Z,5.40
2023-05-06T02:50:58.765Z,7.03
2023-05-06T02:53:26.435Z,6.15
2023-05-06T02:55:53.809Z,5.25
2023-05-06T02:58:21.475Z,9.85
2023-05-06T03:00:48.926Z,6.35
2023-05-06T03:03:16.554Z,8.32
2023-05-06T03:05:43.828Z,10.15
2023-05-06T03:08:11.402Z,5.03
2023-05-06T03:10:38.722Z,7.10
2023-05-06T03:13:06.328Z,9.98
2023-05-06T03:15:33.753Z,7.55
2023-05-06T03:18:01.457Z,13.57
2023-05-06T03:20:28.968Z,9.00
2023-05-06T03:22:56.668Z,7.22
2023-05-06T03:25:24.241Z,5.18
2023-05-06T03:27:51.869Z,6.35
2023-05-06T03:30:19.214Z,5.72
2023-05-06T03:32:48.757Z,13.20
2023-05-06T03:35:16.690Z,5.82
2023-05-06T03:37:44.258Z,8.07
2023-05-06T03:40:11.709Z,9.10
2023-05-06T03:42:39.290Z,5.43
2023-05-06T03:45:09.196Z,6.15
2023-05-06T03:47:37.026Z,9.35
2023-05-06T03:50:04.639Z,8.13
2023-05-06T03:52:32.327Z,10.30
2023-05-06T03:54:59.629Z,10.40
2023-05-06T03:57:27.252Z,9.55
2023-05-06T03:59:54.544Z,7.18
2023-05-06T04:02:22.216Z,9.48
2023-05-06T04:04:49.574Z,13.18
2023-05-06T04:07:17.185Z,6.88
2023-05-06T04:09:44.572Z,13.88
2023-05-06T04:12:12.147Z,8.38
2023-05-06T04:14:40.197Z,6.25
2023-05-06T04:17:08.050Z,9.65
2023-05-06T04:19:35.363Z,8.93
2023-05-06T04:22:03.035Z,10.18
2023-05-06T04:24:31.216Z,6.80
2023-05-06T04:26:59.149Z,4.97
2023-05-06T04:29:28.438Z,12.13
2023-05-06T04:31:56.443Z,17.58
2023-05-06T04:34:25.221Z,6.47
2023-05-06T04:36:54.307Z,12.60
2023-05-06T04:39:21.657Z,11.02
2023-05-06T04:41:49.206Z,10.07
2023-05-06T04:44:16.742Z,5.45
2023-05-06T04:46:44.491Z,8.00
2023-05-06T04:49:12.591Z,5.07
2023-05-06T04:51:40.390Z,8.85
2023-05-06T04:54:07.691Z,14.73
2023-05-06T04:56:35.282Z,9.52
2023-05-06T04:59:02.629Z,5.80
2023-05-06T05:01:31.123Z,7.97
2023-05-06T05:03:58.485Z,7.55
2023-05-06T05:06:26.105Z,6.15
2023-05-06T05:08:55.244Z,8.95
2023-05-06T05:11:23.083Z,4.32
2023-05-06T05:13:50.464Z,4.97
2023-05-06T05:16:18.347Z,4.47
2023-05-06T05:18:45.659Z,4.38
2023-05-06T05:21:13.253Z,8.32
2023-05-06T05:23:40.686Z,10.80
2023-05-06T05:26:08.312Z,13.30
2023-05-06T05:28:35.572Z,15.85
2023-05-06T05:31:04.225Z,10.90
2023-05-06T05:33:31.623Z,7.82
2023-05-06T05:35:59.351Z,5.53
2023-05-06T05:38:26.640Z,5.35
2023-05-06T05:40:54.271Z,8.77
2023-05-06T05:43:22.701Z,5.32
2023-05-06T05:45:50.371Z,5.30
2023-05-06T05:48:17.732Z,5.28
2023-05-06T05:50:46.047Z,5.85
2023-05-06T05:53:13.413Z,2.58
2023-05-06T05:55:40.970Z,2.67
2023-05-06T05:58:08.244Z,7.35
2023-05-06T06:00:35.829Z,2.85
2023-05-06T06:03:03.366Z,11.93
2023-05-06T06:05:31.115Z,2.72
2023-05-06T06:07:59.081Z,3.70
2023-05-06T06:10:26.720Z,8.80
2023-05-06T06:12:54.017Z,2.75
2023-05-06T06:15:22.092Z,3.30
2023-05-06T06:17:49.565Z,3.50
2023-05-06T06:20:17.242Z,3.92
2023-05-06T06:22:44.539Z,3.53
2023-05-06T06:25:12.530Z,4.28
2023-05-06T06:27:39.935Z,3.67
2023-05-06T06:30:07.844Z,3.88
2023-05-06T06:32:35.429Z,4.88
2023-05-06T06:35:03.072Z,6.90
2023-05-06T06:37:30.404Z,4.25
2023-05-06T06:39:58.168Z,2.80
2023-05-06T06:42:26.208Z,4.28
2023-05-06T06:44:54.796Z,7.05
2023-05-06T06:47:22.230Z,4.53
2023-05-06T06:49:49.834Z,1.90
2023-05-06T06:52:17.079Z,5.20
2023-05-06T06:54:45.002Z,5.43
2023-05-06T06:57:12.331Z,2.42
2023-05-06T06:59:39.950Z,2.35
2023-05-06T07:02:07.398Z,3.03
2023-05-06T07:04:35.151Z,3.90
2023-05-06T07:07:02.431Z,2.20
2023-05-06T07:09:30.054Z,5.70
2023-05-06T07:11:58.537Z,3.13
2023-05-06T07:14:26.171Z,3.55
2023-05-06T07:16:53.717Z,4.00
2023-05-06T07:19:21.902Z,2.47
2023-05-06T07:21:49.212Z,2.05
2023-05-06T07:24:16.924Z,1.95
2023-05-06T07:26:45.080Z,6.80
2023-05-06T07:29:12.635Z,3.55
2023-05-06T07:31:40.117Z,5.25
2023-05-06T07:34:07.791Z,3.38
2023-05-06T07:36:40.401Z,4.28
2023-05-06T07:39:08.491Z,6.40
2023-05-06T07:41:36.057Z,2.55
2023-05-06T07:44:03.835Z,3.78
2023-05-06T07:46:31.324Z,4.90
2023-05-06T07:48:58.980Z,3.42
2023-05-06T07:51:27.080Z,8.85
2023-05-06T07:53:54.664Z,2.50
2023-05-06T07:56:21.949Z,4.72
2023-05-06T07:58:49.582Z,4.05
2023-05-06T08:01:16.894Z,2.67
2023-05-06T08:03:44.782Z,2.25
2023-05-06T08:06:12.192Z,3.15
2023-05-06T08:08:39.832Z,1.95
2023-05-06T08:11:07.116Z,4.15
2023-05-06T08:13:34.695Z,3.13
2023-05-06T08:16:02.465Z,4.05
2023-05-06T08:18:30.333Z,5.15
2023-05-06T08:20:57.647Z,5.47
2023-05-06T08:23:25.452Z,2.65
2023-05-06T08:25:52.717Z,4.57
2023-05-06T08:28:20.634Z,2.83
2023-05-06T08:30:48.597Z,3.15
2023-05-06T08:33:16.255Z,2.03
2023-05-06T08:35:44.809Z,5.00
2023-05-06T08:38:12.448Z,2.33
2023-05-06T08:40:43.202Z,3.83
2023-05-06T08:43:20.472Z,3.10
2023-05-06T08:45:48.151Z,7.55
2023-05-06T08:48:16.746Z,2.70
2023-05-06T08:50:44.454Z,5.13
2023-05-06T08:53:13.400Z,2.50
2023-05-06T08:55:42.052Z,6.88
2023-05-06T08:58:09.405Z,3.28
2023-05-06T09:00:37.464Z,1.35
2023-05-06T09:03:05.056Z,2.25
2023-05-06T09:05:32.760Z,5.47
2023-05-06T09:08:00.101Z,6.72
2023-05-06T09:10:32.533Z,2.83
2023-05-06T09:12:59.909Z,6.38
2023-05-06T09:15:27.550Z,7.20
2023-05-06T09:17:56.242Z,6.75
2023-05-06T09:20:23.940Z,3.15
2023-05-06T09:22:51.704Z,2.92
2023-05-06T09:25:19.662Z,2.15
2023-05-06T09:27:46.925Z,4.50
2023-05-06T09:30:14.924Z,4.30
2023-05-06T09:32:42.699Z,3.47
2023-05-06T09:35:11.649Z,3.42
2023-05-06T09:37:39.973Z,3.85
2023-05-06T09:40:09.331Z,3.92
2023-05-06T09:42:36.710Z,3.45
2023-05-06T09:45:04.384Z,4.82
2023-05-06T09:47:35.402Z,3.20
2023-05-06T09:50:03.986Z,11.57
2023-05-06T09:52:31.731Z,3.17
2023-05-06T09:55:00.206Z,4.07
2023-05-06T09:57:30.943Z,3.25
2023-05-06T09:59:59.243Z,6.10
2023-05-06T10:02:27.294Z,2.88
2023-05-06T10:04:55.393Z,4.57
2023-05-06T10:07:23.541Z,4.78
2023-05-06T10:09:51.555Z,2.80
2023-05-06T10:12:19.752Z,1.88
2023-05-06T10:14:47.946Z,4.20
2023-05-06T10:17:16.030Z,4.47
2023-05-06T10:19:45.808Z,5.95
2023-05-06T10:22:37.802Z,3.55
2023-05-06T10:25:06.896Z,5.47
2023-05-06T10:27:38.268Z,2.67
2023-05-06T10:30:06.377Z,9.90
2023-05-06T10:32:33.952Z,5.82
2023-05-06T10:35:11.696Z,4.25
2023-05-06T10:37:39.909Z,2.17
2023-05-06T10:40:10.090Z,2.70
2023-05-06T10:42:37.429Z,2.25
2023-05-06T10:45:06.341Z,4.25
2023-05-06T10:47:52.435Z,5.75
2023-05-06T10:50:27.576Z,4.43
2023-05-06T10:52:56.242Z,6.18
2023-05-06T10:55:31.628Z,7.65
2023-05-06T10:58:06.910Z,2.65
2023-05-06T11:00:35.082Z,1.80
2023-05-06T11:03:03.760Z,2.92
2023-05-06T11:05:31.709Z,4.07
2023-05-06T11:08:10.092Z,7.03
2023-05-06T11:10:37.900Z,6.43
2023-05-06T11:13:22.223Z,2.63
2023-05-06T11:15:53.104Z,3.50
2023-05-06T11:18:26.832Z,5.40
2023-05-06T11:21:03.679Z,2.88
2023-05-06T11:23:43.395Z,1.55
2023-05-06T11:26:11.333Z,2.85
2023-05-06T11:28:38.968Z,3.10
2023-05-06T11:31:07.642Z,6.88
2023-05-06T11:33:36.659Z,5.45
2023-05-06T11:36:05.003Z,3.25
2023-05-06T11:38:48.110Z,5.93
2023-05-06T11:41:16.555Z,6.72
2023-05-06T11:43:47.628Z,29.15
2023-05-06T11:46:15.258Z,3.58
2023-05-06T11:48:44.013Z,4.35
2023-05-06T11:51:11.920Z,3.10
2023-05-06T11:53:39.411Z,2.38
2023-05-06T11:56:07.471Z,4.88
2023-05-06T11:58:34.765Z,5.13
2023-05-06T12:01:03.623Z,3.78
2023-05-06T12:03:31.794Z,4.85
2023-05-06T12:05:59.983Z,6.50
2023-05-06T12:08:31.021Z,4.10
2023-05-06T12:11:00.212Z,10.13
2023-05-06T12:13:27.889Z,6.88
2023-05-06T12:15:56.137Z,17.73
2023-05-06T12:18:24.168Z,7.20
2023-05-06T12:20:54.657Z,4.70
2023-05-06T12:23:22.409Z,16.60
2023-05-06T12:26:03.882Z,8.38
2023-05-06T12:28:31.981Z,7.20
2023-05-06T12:30:59.775Z,6.90
2023-05-06T12:33:27.102Z,6.07
2023-05-06T12:35:58.252Z,8.77
2023-05-06T12:38:25.625Z,6.57
2023-05-06T12:40:54.374Z,4.47
2023-05-06T12:43:29.190Z,8.13
2023-05-06T12:46:04.542Z,4.28
2023-05-06T12:48:31.918Z,4.38
2023-05-06T12:50:59.684Z,2.25
2023-05-06T12:53:34.201Z,6.28
2023-05-06T12:56:01.966Z,3.50
2023-05-06T12:58:29.249Z,3.85
2023-05-06T13:00:56.969Z,3.08
2023-05-06T13:03:24.435Z,4.68
2023-05-06T13:05:52.117Z,2.95
2023-05-06T13:08:19.450Z,6.28
2023-05-06T13:10:47.095Z,5.47
2023-05-06T13:13:14.477Z,6.28
2023-05-06T13:15:42.193Z,6.93
2023-05-06T13:18:09.662Z,6.85
2023-05-06T13:20:37.336Z,15.48
2023-05-06T13:23:04.775Z,7.10
2023-05-06T13:25:32.362Z,8.18
2023-05-06T13:27:59.921Z,5.47
2023-05-06T13:30:27.802Z,4.07
2023-05-06T13:32:55.130Z,12.07
2023-05-06T13:35:22.762Z,4.18
2023-05-06T13:37:50.087Z,3.67
2023-05-06T13:40:17.798Z,21.77
2023-05-06T13:42:45.312Z,6.90
2023-05-06T13:45:13.021Z,7.07
2023-05-06T13:47:40.413Z,6.65
2023-05-06T13:50:08.229Z,5.03
2023-05-06T13:52:35.752Z,8.10
2023-05-06T13:55:03.579Z,13.35
2023-05-06T13:57:30.844Z,19.00
2023-05-06T13:59:58.619Z,8.80
2023-05-06T14:02:26.534Z,12.00
2023-05-06T14:04:55.186Z,7.13
2023-05-06T14:07:22.513Z,7.15
2023-05-06T14:09:50.126Z,15.60
2023-05-06T14:12:17.420Z,3.33
2023-05-06T14:14:45.053Z,15.05
2023-05-06T14:17:12.344Z,10.13
2023-05-06T14:19:39.921Z,4.18
2023-05-06T14:22:07.182Z,6.47
2023-05-06T14:24:34.870Z,9.35
2023-05-06T14:27:02.204Z,5.22
2023-05-06T14:29:29.770Z,6.43
2023-05-06T14:31:57.168Z,4.72
2023-05-06T14:34:24.978Z,9.13
2023-05-06T14:36:52.273Z,6.15
2023-05-06T14:39:20.143Z,2.95
2023-05-06T14:41:47.514Z,7.22
2023-05-06T14:44:15.269Z,5.80
2023-05-06T14:46:42.541Z,5.03
2023-05-06T14:49:10.115Z,6.57
2023-05-06T14:51:37.539Z,10.77
2023-05-06T14:54:05.204Z,12.18
2023-05-06T14:56:32.523Z,19.02
2023-05-06T14:59:01.902Z,11.32
2023-05-06T15:01:33.425Z,30.48
2023-05-06T15:04:01.517Z,15.73
2023-05-06T15:06:28.831Z,7.30
2023-05-06T15:08:56.679Z,13.90
2023-05-06T15:11:24.024Z,10.75
2023-05-06T15:13:51.636Z,9.40
2023-05-06T15:16:18.987Z,6.20
2023-05-06T15:18:46.724Z,9.80
2023-05-06T15:21:14.248Z,16.27
2023-05-06T15:23:41.914Z,6.53
2023-05-06T15:26:09.250Z,5.95
2023-05-06T15:28:36.861Z,4.80
2023-05-06T15:31:04.269Z,6.40
2023-05-06T15:33:31.979Z,6.38
2023-05-06T15:35:59.281Z,7.93
2023-05-06T15:38:26.974Z,9.13
2023-05-06T15:40:54.740Z,7.72
2023-05-06T15:43:24.286Z,7.90
2023-05-06T15:45:52.305Z,6.72
2023-05-06T15:48:20.010Z,5.53
2023-05-06T15:50:47.356Z,4.22
2023-05-06T15:53:15.064Z,5.85
2023-05-06T15:55:46.614Z,10.25
2023-05-06T15:58:20.401Z,9.18
2023-05-06T16:00:47.911Z,12.95
2023-05-06T16:03:16.401Z,8.63
2023-05-06T16:05:43.819Z,7.85
2023-05-06T16:08:11.492Z,12.38
2023-05-06T16:10:38.990Z,5.03
2023-05-06T16:13:07.031Z,9.57
2023-05-06T16:15:35.433Z,14.65
2023-05-06T16:18:03.168Z,9.02
2023-05-06T16:20:32.051Z,13.50
2023-05-06T16:22:59.782Z,10.80
2023-05-06T16:25:27.113Z,6.32
2023-05-06T16:27:55.290Z,9.52
2023-05-06T16:30:22.843Z,16.75
2023-05-06T16:32:50.505Z,6.28
2023-05-06T16:35:18.601Z,7.00
2023-05-06T16:37:46.252Z,12.35
2023-05-06T16:40:14.573Z,8.07
2023-05-06T16:42:42.223Z,8.52
2023-05-06T16:45:09.684Z,12.50
2023-05-06T16:47:37.470Z,13.13
2023-05-06T16:50:05.310Z,12.85
2023-05-06T16:52:33.129Z,9.68
2023-05-06T16:55:00.521Z,17.52
2023-05-06T16:57:28.144Z,9.82
2023-05-06T16:59:55.755Z,6.45
2023-05-06T17:02:23.578Z,9.55
2023-05-06T17:04:52.019Z,4.38
2023-05-06T17:07:20.049Z,13.98
2023-05-06T17:09:47.618Z,9.48
2023-05-06T17:12:15.604Z,16.38
2023-05-06T17:14:43.914Z,8.30
2023-05-06T17:17:11.642Z,12.98
2023-05-06T17:19:38.998Z,8.20
2023-05-06T17:22:08.102Z,7.32
2023-05-06T17:24:35.468Z,11.13
2023-05-06T17:27:03.200Z,13.43
2023-05-06T17:29:30.872Z,12.27
2023-05-06T17:31:58.505Z,13.65
2023-05-06T17:34:25.982Z,13.32
2023-05-06T17:36:53.716Z,7.00
2023-05-06T17:39:21.312Z,10.32
2023-05-06T17:41:50.021Z,5.85
2023-05-06T17:44:18.306Z,4.50
2023-05-06T17:46:46.103Z,13.65
2023-05-06T17:49:13.543Z,9.95
2023-05-06T17:51:42.538Z,6.20
2023-05-06T17:54:09.812Z,4.90
2023-05-06T17:56:37.635Z,4.03
2023-05-06T17:59:05.495Z,6.90
2023-05-06T18:01:33.119Z,8.10
2023-05-06T18:04:00.641Z,7.13
2023-05-06T18:06:28.764Z,13.18
2023-05-06T18:08:56.011Z,12.23
2023-05-06T18:11:24.680Z,9.55
2023-05-06T18:13:51.982Z,7.07
2023-05-06T18:16:20.071Z,7.32
2023-05-06T18:18:47.431Z,7.80
2023-05-06T18:21:15.462Z,7.85
2023-05-06T18:23:42.772Z,14.90
2023-05-06T18:26:10.461Z,17.33
2023-05-06T18:28:38.083Z,20.83
2023-05-06T18:31:06.211Z,16.30
2023-05-06T18:33:34.545Z,21.55
2023-05-06T18:36:03.071Z,15.05
2023-05-06T18:38:30.712Z,15.40
2023-05-06T18:40:58.570Z,8.32
2023-05-06T18:43:25.864Z,7.85
2023-05-06T18:45:53.670Z,8.70
2023-05-06T18:48:20.962Z,12.10
2023-05-06T18:50:50.508Z,12.60
2023-05-06T18:53:17.811Z,17.02
2023-05-06T18:55:45.505Z,11.88
2023-05-06T18:58:12.829Z,10.90
2023-05-06T19:00:40.905Z,11.27
2023-05-06T19:03:08.359Z,11.82
2023-05-06T19:05:37.887Z,16.00
2023-05-06T19:08:05.289Z,20.02
2023-05-06T19:10:34.408Z,36.78
2023-05-06T19:13:02.068Z,42.85
2023-05-06T19:15:29.844Z,34.70
2023-05-06T19:17:57.237Z,61.30
2023-05-06T19:20:24.957Z,45.30
2023-05-06T19:22:52.382Z,34.83
2023-05-06T19:25:19.951Z,30.13
2023-05-06T19:27:47.349Z,34.55
2023-05-06T19:30:15.207Z,43.70
2023-05-06T19:32:44.426Z,57.22
2023-05-06T19:35:12.371Z,59.53
2023-05-06T19:37:40.175Z,54.15
2023-05-06T19:40:09.012Z,46.00
2023-05-06T19:42:36.337Z,47.45
2023-05-06T19:45:07.993Z,43.13
2023-05-06T19:47:35.565Z,42.85
2023-05-06T19:50:03.482Z,41.03
2023-05-06T19:52:31.513Z,47.45
2023-05-06T19:55:01.605Z,44.85
2023-05-06T19:57:28.903Z,48.38
2023-05-06T19:59:56.784Z,47.50
2023-05-06T20:02:24.465Z,61.60
2023-05-06T20:04:52.253Z,54.08
2023-05-06T20:07:21.064Z,43.17
2023-05-06T20:09:55.132Z,28.65
2023-05-06T20:12:23.524Z,24.98
2023-05-06T20:14:51.233Z,28.05
2023-05-06T20:17:18.954Z,59.63
2023-05-06T20:19:46.773Z,89.80
2023-05-06T20:22:14.301Z,67.22
2023-05-06T20:24:42.499Z,43.67
2023-05-06T20:27:10.063Z,40.90
2023-05-06T20:29:37.793Z,29.60
2023-05-06T20:32:05.425Z,33.08
2023-05-06T20:34:33.198Z,22.70
2023-05-06T20:37:01.307Z,27.55
2023-05-06T20:39:28.908Z,26.88
2023-05-06T20:41:56.227Z,18.45
2023-05-06T20:44:25.002Z,30.42
2023-05-06T20:46:52.313Z,15.10
2023-05-06T20:49:19.941Z,13.07
2023-05-06T20:51:47.333Z,17.88
2023-05-06T20:54:14.903Z,26.83
2023-05-06T20:56:42.913Z,11.77
2023-05-06T20:59:10.873Z,10.73
2023-05-06T21:01:38.264Z,11.95
2023-05-06T21:04:06.289Z,14.32
2023-05-06T21:06:33.669Z,15.18
2023-05-06T21:09:01.298Z,18.77
2023-05-06T21:11:28.952Z,20.55
2023-05-06T21:13:56.615Z,12.73
2023-05-06T21:16:23.928Z,12.38
2023-05-06T21:18:51.576Z,29.88
2023-05-06T21:21:18.889Z,34.85
2023-05-06T21:23:46.706Z,25.67
2023-05-06T21:26:14.096Z,35.03
2023-05-06T21:28:41.880Z,53.13
2023-05-06T21:31:09.406Z,20.85
2023-05-06T21:33:37.115Z,27.20
2023-05-06T21:36:04.540Z,17.10
2023-05-06T21:38:32.105Z,26.00
2023-05-06T21:40:59.459Z,14.70
2023-05-06T21:43:27.090Z,36.35
2023-05-06T21:45:54.470Z,72.93
2023-05-06T21:48:22.150Z,181.80
2023-05-06T21:50:49.517Z,105.68
2023-05-06T21:53:17.173Z,25.27
2023-05-06T21:55:44.500Z,31.38
2023-05-06T21:58:12.255Z,25.92
2023-05-06T22:00:39.577Z,32.97
2023-05-06T22:03:07.337Z,44.90
2023-05-06T22:05:34.701Z,22.17
2023-05-06T22:08:02.383Z,57.28
2023-05-06T22:10:29.714Z,29.13
2023-05-06T22:12:57.437Z,16.27
2023-05-06T22:15:24.851Z,22.45
2023-05-06T22:17:53.040Z,34.22
2023-05-06T22:20:21.409Z,13.73
2023-05-06T22:22:51.699Z,19.60
2023-05-06T22:25:18.984Z,20.63
2023-05-06T22:27:46.557Z,19.33
2023-05-06T22:30:15.852Z,28.17
2023-05-06T22:32:43.498Z,16.30
2023-05-06T22:35:11.257Z,9.90
2023-05-06T22:37:39.004Z,16.42
2023-05-06T22:40:07.155Z,16.00
2023-05-06T22:42:34.863Z,16.08
2023-05-06T22:45:02.136Z,15.85
2023-05-06T22:47:29.795Z,13.10
2023-05-06T22:49:57.144Z,10.13
2023-05-06T22:52:25.422Z,11.63
2023-05-06T22:54:52.894Z,10.43
2023-05-06T22:57:22.809Z,8.88
2023-05-06T22:59:50.438Z,10.90
2023-05-06T23:02:17.990Z,12.85
2023-05-06T23:04:45.366Z,9.07
2023-05-06T23:07:13.852Z,15.77
2023-05-06T23:09:41.207Z,14.52
2023-05-06T23:12:08.812Z,12.82
2023-05-06T23:14:36.164Z,9.80
2023-05-06T23:17:03.843Z,10.68
2023-05-06T23:19:31.323Z,8.07
2023-05-06T23:21:59.042Z,16.45
2023-05-06T23:24:26.341Z,11.57
2023-05-06T23:26:54.451Z,16.23
2023-05-06T23:29:21.760Z,13.90
2023-05-06T23:31:49.463Z,13.10
2023-05-06T23:34:16.732Z,9.93
2023-05-06T23:36:44.453Z,9.88
2023-05-06T23:39:12.060Z,12.60
2023-05-06T23:41:39.672Z,9.40
2023-05-06T23:44:07.000Z,14.80
2023-05-06T23:46:34.627Z,19.15
2023-05-06T23:49:02.313Z,11.80
2023-05-06T23:51:29.931Z,8.82
2023-05-06T23:53:57.202Z,15.90
2023-05-06T23:56:24.949Z,13.23
2023-05-06T23:58:52.268Z,8.13
